createdAt,value
2018-08-07T00:00:05.525Z,0.00
2018-08-07T00:01:05.438Z,0.00
2018-08-07T00:02:05.364Z,0.00
2018-08-07T00:03:05.286Z,0.00
2018-08-07T00:04:05.214Z,0.00
2018-08-07T00:05:05.123Z,0.00
2018-08-07T00:06:05.060Z,0.00
2018-08-07T00:07:04.972Z,0.00
2018-08-07T00:08:04.897Z,0.00
2018-08-07T00:09:04.823Z,0.00
2018-08-07T00:10:04.736Z,0.00
2018-08-07T00:11:04.662Z,0.00
2018-08-07T00:12:04.587Z,0.00
2018-08-07T00:13:04.499Z,0.00
2018-08-07T00:14:04.424Z,0.00
2018-08-07T00:15:04.350Z,0.00
2018-08-07T00:16:04.273Z,0.00
2018-08-07T00:17:04.187Z,0.00
2018-08-07T00:18:04.116Z,0.00
2018-08-07T00:19:04.038Z,0.00
2018-08-07T00:20:03.951Z,0.00
2018-08-07T00:21:03.873Z,0.00
2018-08-07T00:22:03.848Z,0.00
2018-08-07T00:23:03.725Z,0.00
2018-08-07T00:24:03.640Z,0.00
2018-08-07T00:25:03.563Z,0.00
2018-08-07T00:26:03.488Z,0.00
2018-08-07T00:27:03.413Z,0.00
2018-08-07T00:28:03.338Z,0.00
2018-08-07T00:29:03.250Z,0.00
2018-08-07T00:30:03.178Z,0.00
2018-08-07T00:31:03.101Z,0.00
2018-08-07T00:32:03.013Z,0.00
2018-08-07T00:33:02.941Z,0.00
2018-08-07T00:34:02.863Z,0.00
2018-08-07T00:35:02.789Z,0.00
2018-08-07T00:36:02.701Z,0.00
2018-08-07T00:37:02.625Z,0.00
2018-08-07T00:38:02.551Z,0.00
2018-08-07T00:39:02.480Z,0.00
2018-08-07T00:40:02.390Z,0.00
2018-08-07T00:41:02.317Z,0.00
2018-08-07T00:42:02.241Z,0.00
2018-08-07T00:43:02.151Z,0.00
2018-08-07T00:44:02.076Z,0.00
2018-08-07T00:45:02.008Z,0.00
2018-08-07T00:46:01.927Z,0.00
2018-08-07T00:47:01.840Z,0.00
2018-08-07T00:48:01.766Z,0.00
2018-08-07T00:49:01.690Z,0.00
2018-08-07T00:50:01.631Z,0.00
2018-08-07T00:51:01.527Z,0.00
2018-08-07T00:52:01.453Z,0.00
2018-08-07T00:53:01.376Z,0.00
2018-08-07T00:54:01.290Z,0.00
2018-08-07T00:55:01.216Z,0.00
2018-08-07T00:56:01.142Z,0.00
2018-08-07T00:57:01.054Z,0.00
2018-08-07T00:58:00.977Z,0.00
2018-08-07T00:59:00.903Z,0.00
2018-08-07T01:00:00.828Z,0.00
2018-08-07T01:01:00.742Z,0.00
2018-08-07T01:02:00.666Z,0.00
2018-08-07T01:03:00.591Z,0.00
2018-08-07T01:04:00.526Z,0.00
2018-08-07T01:05:00.429Z,0.00
2018-08-07T01:06:00.366Z,0.00
2018-08-07T01:07:00.278Z,0.00
2018-08-07T01:08:00.192Z,0.00
2018-08-07T01:09:00.131Z,0.00
2018-08-07T01:10:00.042Z,0.00
2018-08-07T01:10:59.967Z,0.00
2018-08-07T01:11:59.878Z,0.00
2018-08-07T01:12:59.804Z,0.00
2018-08-07T01:13:59.728Z,0.00
2018-08-07T01:14:59.641Z,0.00
2018-08-07T01:15:59.570Z,0.00
2018-08-07T01:16:59.496Z,0.00
2018-08-07T01:17:59.406Z,0.00
2018-08-07T01:18:59.330Z,0.00
2018-08-07T01:19:59.255Z,0.00
2018-08-07T01:20:59.180Z,0.00
2018-08-07T01:21:59.094Z,0.00
2018-08-07T01:22:59.018Z,0.00
2018-08-07T01:23:58.948Z,0.00
2018-08-07T01:24:58.856Z,0.00
2018-08-07T01:25:58.780Z,0.00
2018-08-07T01:26:58.729Z,0.00
2018-08-07T01:27:58.631Z,0.00
2018-08-07T01:28:58.544Z,0.00
2018-08-07T01:29:58.471Z,0.00
2018-08-07T01:30:58.396Z,0.00
2018-08-07T01:31:58.307Z,0.00
2018-08-07T01:32:58.233Z,0.00
2018-08-07T01:33:58.157Z,0.00
2018-08-07T01:34:58.081Z,0.00
2018-08-07T01:35:57.997Z,0.00
2018-08-07T01:36:57.920Z,0.00
2018-08-07T01:37:57.847Z,0.00
2018-08-07T01:38:57.757Z,0.00
2018-08-07T01:39:57.682Z,0.00
2018-08-07T01:40:57.607Z,0.00
2018-08-07T01:41:57.523Z,0.00
2018-08-07T01:42:57.446Z,0.00
2018-08-07T01:43:57.370Z,0.00
2018-08-07T01:44:57.296Z,0.00
2018-08-07T01:45:57.207Z,0.00
2018-08-07T01:46:57.133Z,0.00
2018-08-07T01:47:57.058Z,0.00
2018-08-07T01:48:56.971Z,0.00
2018-08-07T01:49:56.897Z,0.00
2018-08-07T01:50:56.827Z,0.00
2018-08-07T01:51:56.733Z,0.00
2018-08-07T01:52:56.659Z,0.00
2018-08-07T01:53:56.584Z,0.00
2018-08-07T01:54:56.509Z,0.00
2018-08-07T01:55:56.422Z,0.00
2018-08-07T01:56:56.351Z,0.00
2018-08-07T01:57:56.272Z,0.00
2018-08-07T01:58:56.184Z,0.00
2018-08-07T01:59:56.110Z,0.00
2018-08-07T02:00:56.035Z,0.00
2018-08-07T02:01:55.947Z,0.00
2018-08-07T02:02:55.873Z,0.00
2018-08-07T02:03:55.798Z,0.00
2018-08-07T02:04:55.710Z,0.00
2018-08-07T02:05:55.635Z,0.00
2018-08-07T02:06:55.560Z,0.00
2018-08-07T02:07:55.473Z,0.00
2018-08-07T02:08:55.398Z,0.00
2018-08-07T02:09:55.323Z,0.00
2018-08-07T02:10:55.249Z,0.00
2018-08-07T02:11:55.160Z,0.00
2018-08-07T02:12:55.099Z,0.00
2018-08-07T02:13:55.011Z,0.00
2018-08-07T02:14:54.927Z,0.00
2018-08-07T02:15:54.849Z,0.00
2018-08-07T02:16:54.774Z,0.00
2018-08-07T02:17:54.699Z,0.00
2018-08-07T02:18:54.611Z,0.00
2018-08-07T02:19:54.536Z,0.00
2018-08-07T02:20:54.450Z,0.00
2018-08-07T02:21:54.374Z,0.00
2018-08-07T02:22:54.300Z,0.00
2018-08-07T02:23:54.213Z,0.00
2018-08-07T02:24:54.160Z,0.00
2018-08-07T02:25:54.063Z,0.00
2018-08-07T02:26:53.974Z,0.00
2018-08-07T02:27:53.902Z,0.00
2018-08-07T02:28:53.857Z,0.00
2018-08-07T02:29:53.737Z,0.00
2018-08-07T02:30:53.663Z,0.00
2018-08-07T02:31:53.588Z,0.00
2018-08-07T02:32:53.501Z,0.00
2018-08-07T02:33:53.426Z,0.00
2018-08-07T02:34:53.351Z,0.00
2018-08-07T02:35:53.263Z,0.00
2018-08-07T02:36:53.188Z,0.00
2018-08-07T02:37:53.113Z,0.00
2018-08-07T02:38:53.032Z,0.00
2018-08-07T02:39:52.952Z,0.00
2018-08-07T02:40:52.888Z,0.00
2018-08-07T02:41:52.792Z,0.00
2018-08-07T02:42:52.715Z,0.00
2018-08-07T02:43:52.638Z,0.00
2018-08-07T02:44:52.553Z,0.00
2018-08-07T02:45:52.476Z,0.00
2018-08-07T02:46:52.402Z,0.00
2018-08-07T02:47:52.315Z,0.00
2018-08-07T02:48:52.241Z,0.00
2018-08-07T02:49:52.164Z,0.00
2018-08-07T02:50:52.089Z,0.00
2018-08-07T02:51:52.003Z,0.00
2018-08-07T02:52:51.928Z,0.00
2018-08-07T02:53:51.841Z,0.00
2018-08-07T02:54:51.778Z,0.00
2018-08-07T02:55:51.689Z,0.00
2018-08-07T02:56:51.609Z,0.00
2018-08-07T02:57:51.528Z,0.00
2018-08-07T02:58:51.453Z,0.00
2018-08-07T02:59:51.379Z,0.00
2018-08-07T03:00:51.290Z,0.00
2018-08-07T03:01:51.216Z,0.00
2018-08-07T03:02:51.130Z,0.00
2018-08-07T03:03:51.053Z,0.00
2018-08-07T03:04:50.983Z,4.00
2018-08-07T03:05:50.892Z,4.00
2018-08-07T03:06:50.817Z,4.00
2018-08-07T03:07:50.742Z,4.00
2018-08-07T03:08:50.655Z,4.00
2018-08-07T03:09:50.580Z,4.00
2018-08-07T03:10:50.506Z,4.00
2018-08-07T03:11:50.418Z,8.00
2018-08-07T03:12:50.344Z,8.00
2018-08-07T03:13:50.268Z,8.00
2018-08-07T03:14:50.186Z,8.00
2018-08-07T03:15:50.106Z,12.00
2018-08-07T03:16:50.031Z,12.00
2018-08-07T03:17:49.942Z,12.00
2018-08-07T03:18:49.871Z,16.00
2018-08-07T03:19:49.806Z,16.00
2018-08-07T03:20:49.708Z,20.00
2018-08-07T03:21:49.631Z,24.00
2018-08-07T03:22:49.556Z,28.00
2018-08-07T03:23:49.468Z,28.00
2018-08-07T03:24:49.407Z,32.00
2018-08-07T03:25:49.318Z,36.00
2018-08-07T03:26:49.233Z,40.00
2018-08-07T03:27:49.157Z,44.00
2018-08-07T03:28:49.081Z,52.00
2018-08-07T03:29:48.993Z,60.00
2018-08-07T03:30:48.922Z,64.00
2018-08-07T03:31:48.844Z,72.00
2018-08-07T03:32:48.760Z,76.00
2018-08-07T03:33:48.686Z,84.00
2018-08-07T03:34:48.611Z,92.00
2018-08-07T03:35:48.519Z,100.00
2018-08-07T03:36:48.458Z,108.00
2018-08-07T03:37:48.403Z,120.00
2018-08-07T03:38:48.288Z,128.00
2018-08-07T03:39:48.214Z,140.00
2018-08-07T03:40:48.120Z,152.00
2018-08-07T03:41:48.059Z,164.00
2018-08-07T03:42:47.972Z,176.00
2018-08-07T03:43:47.884Z,188.00
2018-08-07T03:44:47.809Z,196.00
2018-08-07T03:45:47.733Z,212.00
2018-08-07T03:46:47.646Z,224.00
2018-08-07T03:47:47.575Z,236.00
2018-08-07T03:48:47.496Z,252.00
2018-08-07T03:49:47.409Z,264.00
2018-08-07T03:50:47.334Z,280.00
2018-08-07T03:51:47.259Z,292.00
2018-08-07T03:52:47.184Z,304.00
2018-08-07T03:53:47.097Z,316.00
2018-08-07T03:54:47.021Z,328.00
2018-08-07T03:55:46.946Z,340.00
2018-08-07T03:56:46.859Z,352.00
2018-08-07T03:57:46.785Z,368.00
2018-08-07T03:58:46.696Z,388.00
2018-08-07T03:59:46.621Z,408.00
2018-08-07T04:00:46.548Z,428.00
2018-08-07T04:01:46.462Z,444.00
2018-08-07T04:02:46.386Z,460.00
2018-08-07T04:03:46.299Z,476.00
2018-08-07T04:04:46.222Z,488.00
2018-08-07T04:05:46.147Z,500.00
2018-08-07T04:06:46.073Z,516.00
2018-08-07T04:07:45.985Z,528.00
2018-08-07T04:08:45.911Z,540.00
2018-08-07T04:09:45.825Z,552.00
2018-08-07T04:10:45.748Z,564.00
2018-08-07T04:11:45.673Z,576.00
2018-08-07T04:12:45.586Z,592.00
2018-08-07T04:13:45.511Z,608.00
2018-08-07T04:14:45.436Z,624.00
2018-08-07T04:15:45.349Z,640.00
2018-08-07T04:16:45.275Z,656.00
2018-08-07T04:17:45.199Z,668.00
2018-08-07T04:18:45.112Z,680.00
2018-08-07T04:19:45.038Z,696.00
2018-08-07T04:20:44.963Z,712.00
2018-08-07T04:21:44.875Z,724.00
2018-08-07T04:22:44.798Z,736.00
2018-08-07T04:23:44.738Z,748.00
2018-08-07T04:24:44.638Z,764.00
2018-08-07T04:25:44.567Z,780.00
2018-08-07T04:26:44.488Z,796.00
2018-08-07T04:27:44.399Z,824.00
2018-08-07T04:28:44.338Z,852.00
2018-08-07T04:29:44.250Z,848.00
2018-08-07T04:30:44.166Z,868.00
2018-08-07T04:31:44.089Z,884.00
2018-08-07T04:32:44.014Z,900.00
2018-08-07T04:33:43.926Z,916.00
2018-08-07T04:34:43.851Z,936.00
2018-08-07T04:35:43.775Z,956.00
2018-08-07T04:36:43.689Z,976.00
2018-08-07T04:37:43.614Z,1000.00
2018-08-07T04:38:43.544Z,1020.00
2018-08-07T04:39:43.464Z,1036.00
2018-08-07T04:40:43.376Z,1048.00
2018-08-07T04:41:43.327Z,1060.00
2018-08-07T04:42:43.225Z,1080.00
2018-08-07T04:43:43.142Z,1092.00
2018-08-07T04:44:43.065Z,1108.00
2018-08-07T04:45:42.981Z,1120.00
2018-08-07T04:46:42.901Z,1136.00
2018-08-07T04:47:42.826Z,1148.00
2018-08-07T04:48:42.741Z,1156.00
2018-08-07T04:49:42.665Z,1168.00
2018-08-07T04:50:42.591Z,1180.00
2018-08-07T04:51:42.568Z,1196.00
2018-08-07T04:52:42.427Z,1216.00
2018-08-07T04:53:42.366Z,1224.00
2018-08-07T04:54:42.279Z,1196.00
2018-08-07T04:55:42.192Z,1220.00
2018-08-07T04:56:42.115Z,1232.00
2018-08-07T04:57:42.042Z,1248.00
2018-08-07T04:58:41.954Z,1236.00
2018-08-07T04:59:41.878Z,1240.00
2018-08-07T05:00:41.803Z,1260.00
2018-08-07T05:01:41.728Z,1264.00
2018-08-07T05:02:41.642Z,1268.00
2018-08-07T05:03:41.567Z,1280.00
2018-08-07T05:04:41.492Z,1292.00
2018-08-07T05:05:41.404Z,1296.00
2018-08-07T05:06:41.329Z,1308.00
2018-08-07T05:07:41.253Z,1316.00
2018-08-07T05:08:41.179Z,1320.00
2018-08-07T05:09:41.092Z,1312.00
2018-08-07T05:10:41.056Z,1308.00
2018-08-07T05:11:40.942Z,1308.00
2018-08-07T05:12:40.856Z,1320.00
2018-08-07T05:13:40.779Z,1328.00
2018-08-07T05:14:40.706Z,1332.00
2018-08-07T05:15:40.629Z,1332.00
2018-08-07T05:16:40.547Z,1332.00
2018-08-07T05:17:40.468Z,1340.00
2018-08-07T05:18:40.393Z,1348.00
2018-08-07T05:19:40.318Z,1356.00
2018-08-07T05:20:40.230Z,1360.00
2018-08-07T05:21:40.155Z,1368.00
2018-08-07T05:22:40.126Z,1380.00
2018-08-07T05:23:40.007Z,1388.00
2018-08-07T05:24:39.919Z,1400.00
2018-08-07T05:25:39.845Z,1412.00
2018-08-07T05:26:39.770Z,1420.00
2018-08-07T05:27:39.682Z,1424.00
2018-08-07T05:28:39.626Z,1428.00
2018-08-07T05:29:39.532Z,1444.00
2018-08-07T05:30:39.456Z,1448.00
2018-08-07T05:31:39.370Z,1464.00
2018-08-07T05:32:39.306Z,1528.00
2018-08-07T05:33:39.220Z,1508.00
2018-08-07T05:34:39.146Z,1476.00
2018-08-07T05:35:39.072Z,1548.00
2018-08-07T05:36:38.982Z,1604.00
2018-08-07T05:37:38.909Z,1588.00
2018-08-07T05:38:38.847Z,1540.00
2018-08-07T05:39:38.756Z,1548.00
2018-08-07T05:40:38.685Z,1552.00
2018-08-07T05:41:38.608Z,1552.00
2018-08-07T05:42:38.530Z,1572.00
2018-08-07T05:43:38.446Z,1580.00
2018-08-07T05:44:38.359Z,1592.00
2018-08-07T05:45:38.283Z,1612.00
2018-08-07T05:46:38.208Z,1612.00
2018-08-07T05:47:38.146Z,1608.00
2018-08-07T05:48:38.060Z,1612.00
2018-08-07T05:49:37.975Z,1612.00
2018-08-07T05:50:38.061Z,1608.00
2018-08-07T05:51:37.822Z,1620.00
2018-08-07T05:52:37.746Z,1616.00
2018-08-07T05:53:37.660Z,1620.00
2018-08-07T05:54:37.586Z,1628.00
2018-08-07T05:55:37.509Z,1628.00
2018-08-07T05:56:37.481Z,1628.00
2018-08-07T05:57:37.359Z,1632.00
2018-08-07T05:58:37.275Z,1632.00
2018-08-07T05:59:37.209Z,1636.00
2018-08-07T06:00:37.127Z,1644.00
2018-08-07T06:01:37.048Z,1648.00
2018-08-07T06:02:36.989Z,1652.00
2018-08-07T06:03:36.888Z,1652.00
2018-08-07T06:04:36.811Z,1656.00
2018-08-07T06:05:36.735Z,1664.00
2018-08-07T06:06:36.660Z,1676.00
2018-08-07T06:07:36.575Z,1684.00
2018-08-07T06:08:36.499Z,1692.00
2018-08-07T06:09:36.427Z,1700.00
2018-08-07T06:10:36.349Z,1708.00
2018-08-07T06:11:36.277Z,1716.00
2018-08-07T06:12:36.199Z,1724.00
2018-08-07T06:13:36.111Z,1732.00
2018-08-07T06:14:36.037Z,1736.00
2018-08-07T06:15:35.961Z,1744.00
2018-08-07T06:16:35.899Z,1748.00
2018-08-07T06:17:35.811Z,1756.00
2018-08-07T06:18:35.728Z,1768.00
2018-08-07T06:19:35.651Z,1776.00
2018-08-07T06:20:35.575Z,1788.00
2018-08-07T06:21:35.500Z,1796.00
2018-08-07T06:22:35.426Z,1808.00
2018-08-07T06:23:35.339Z,1816.00
2018-08-07T06:24:35.262Z,1824.00
2018-08-07T06:25:35.199Z,1856.00
2018-08-07T06:26:35.112Z,1860.00
2018-08-07T06:27:35.038Z,1852.00
2018-08-07T06:28:34.966Z,1860.00
2018-08-07T06:29:34.906Z,1868.00
2018-08-07T06:30:34.802Z,1876.00
2018-08-07T06:31:34.876Z,1888.00
2018-08-07T06:32:34.652Z,1896.00
2018-08-07T06:33:34.576Z,1908.00
2018-08-07T06:34:34.490Z,1924.00
2018-08-07T06:35:34.413Z,1936.00
2018-08-07T06:36:34.339Z,1952.00
2018-08-07T06:37:34.263Z,1968.00
2018-08-07T06:38:34.189Z,1984.00
2018-08-07T06:39:34.116Z,2004.00
2018-08-07T06:40:34.040Z,2012.00
2018-08-07T06:41:33.952Z,2036.00
2018-08-07T06:42:33.878Z,2052.00
2018-08-07T06:43:33.803Z,2064.00
2018-08-07T06:44:33.728Z,2088.00
2018-08-07T06:45:33.653Z,2116.00
2018-08-07T06:46:33.578Z,2160.00
2018-08-07T06:47:33.491Z,2164.00
2018-08-07T06:48:33.414Z,2208.00
2018-08-07T06:49:33.340Z,2220.00
2018-08-07T06:50:33.265Z,2232.00
2018-08-07T06:51:33.190Z,2276.00
2018-08-07T06:52:33.115Z,2300.00
2018-08-07T06:53:33.040Z,2272.00
2018-08-07T06:54:32.965Z,2280.00
2018-08-07T06:55:32.879Z,2316.00
2018-08-07T06:56:32.805Z,2336.00
2018-08-07T06:57:32.732Z,2408.00
2018-08-07T06:58:32.654Z,2404.00
2018-08-07T06:59:32.578Z,2400.00
2018-08-07T07:00:32.503Z,2408.00
2018-08-07T07:01:32.430Z,2444.00
2018-08-07T07:02:32.368Z,2476.00
2018-08-07T07:03:32.279Z,2516.00
2018-08-07T07:04:32.193Z,2620.00
2018-08-07T07:05:32.130Z,2676.00
2018-08-07T07:06:32.059Z,2828.00
2018-08-07T07:07:31.966Z,3276.00
2018-08-07T07:08:31.891Z,3312.00
2018-08-07T07:09:31.860Z,3168.00
2018-08-07T07:10:31.742Z,2988.00
2018-08-07T07:11:31.667Z,3080.00
2018-08-07T07:12:31.592Z,3256.00
2018-08-07T07:13:31.517Z,3264.00
2018-08-07T07:14:31.442Z,3252.00
2018-08-07T07:15:31.368Z,3288.00
2018-08-07T07:16:31.296Z,3324.00
2018-08-07T07:17:31.218Z,3344.00
2018-08-07T07:18:31.145Z,3424.00
2018-08-07T07:19:31.067Z,3472.00
2018-08-07T07:20:30.981Z,3524.00
2018-08-07T07:21:30.907Z,3560.00
2018-08-07T07:22:30.831Z,3612.00
2018-08-07T07:23:30.758Z,3716.00
2018-08-07T07:24:30.682Z,3856.00
2018-08-07T07:25:30.610Z,4048.00
2018-08-07T07:26:30.532Z,6632.00
2018-08-07T07:27:30.456Z,9544.00
2018-08-07T07:28:30.386Z,10992.00
2018-08-07T07:29:30.307Z,11748.00
2018-08-07T07:30:30.232Z,7960.00
2018-08-07T07:31:30.167Z,13476.00
2018-08-07T07:32:30.083Z,17028.00
2018-08-07T07:33:30.008Z,19808.00
2018-08-07T07:34:29.973Z,23488.00
2018-08-07T07:35:29.869Z,27872.00
2018-08-07T07:36:29.810Z,33344.00
2018-08-07T07:37:29.719Z,37856.00
2018-08-07T07:38:29.644Z,37248.00
2018-08-07T07:39:29.569Z,31168.00
2018-08-07T07:40:29.507Z,24672.00
2018-08-07T07:41:29.423Z,22528.00
2018-08-07T07:42:29.346Z,22400.00
2018-08-07T07:43:29.271Z,21952.00
2018-08-07T07:44:29.209Z,21632.00
2018-08-07T07:45:29.134Z,21056.00
2018-08-07T07:46:29.059Z,21632.00
2018-08-07T07:47:28.984Z,21472.00
2018-08-07T07:48:28.920Z,21568.00
2018-08-07T07:49:28.846Z,20064.00
2018-08-07T07:50:28.771Z,18816.00
2018-08-07T07:51:28.709Z,16416.00
2018-08-07T07:52:28.634Z,13904.00
2018-08-07T07:53:28.560Z,14456.00
2018-08-07T07:54:28.496Z,15936.00
2018-08-07T07:55:28.421Z,16672.00
2018-08-07T07:56:28.359Z,15424.00
2018-08-07T07:57:28.288Z,11044.00
2018-08-07T07:58:28.223Z,7772.00
2018-08-07T07:59:28.161Z,7180.00
2018-08-07T08:00:28.087Z,7044.00
2018-08-07T08:01:28.011Z,6944.00
2018-08-07T08:02:27.948Z,6872.00
2018-08-07T08:03:27.872Z,6804.00
2018-08-07T08:04:27.810Z,6740.00
2018-08-07T08:05:27.754Z,6700.00
2018-08-07T08:06:27.672Z,6656.00
2018-08-07T08:07:27.598Z,6612.00
2018-08-07T08:08:27.537Z,6564.00
2018-08-07T08:09:27.487Z,6520.00
2018-08-07T08:10:27.398Z,6496.00
2018-08-07T08:11:27.338Z,6476.00
2018-08-07T08:12:27.262Z,6456.00
2018-08-07T08:13:27.198Z,6444.00
2018-08-07T08:14:27.138Z,6420.00
2018-08-07T08:15:27.061Z,6432.00
2018-08-07T08:16:27.004Z,6428.00
2018-08-07T08:17:26.926Z,6424.00
2018-08-07T08:18:26.863Z,6420.00
2018-08-07T08:19:26.799Z,6432.00
2018-08-07T08:20:26.725Z,6468.00
2018-08-07T08:21:26.663Z,6472.00
2018-08-07T08:22:26.600Z,6484.00
2018-08-07T08:23:26.525Z,6504.00
2018-08-07T08:24:26.465Z,6520.00
2018-08-07T08:25:26.400Z,6532.00
2018-08-07T08:26:26.339Z,6560.00
2018-08-07T08:27:26.268Z,6640.00
2018-08-07T08:28:26.200Z,6856.00
2018-08-07T08:29:26.312Z,7000.00
2018-08-07T08:30:26.068Z,6832.00
2018-08-07T08:31:26.001Z,6668.00
2018-08-07T08:32:25.926Z,6792.00
2018-08-07T08:33:25.864Z,6804.00
2018-08-07T08:34:25.802Z,6788.00
2018-08-07T08:35:25.749Z,6812.00
2018-08-07T08:36:25.664Z,6824.00
2018-08-07T08:37:25.603Z,6824.00
2018-08-07T08:38:25.527Z,6828.00
2018-08-07T08:39:25.465Z,6848.00
2018-08-07T08:40:25.402Z,6848.00
2018-08-07T08:41:25.342Z,6864.00
2018-08-07T08:42:25.264Z,6884.00
2018-08-07T08:43:25.202Z,6908.00
2018-08-07T08:44:25.142Z,6952.00
2018-08-07T08:45:25.066Z,7040.00
2018-08-07T08:46:25.002Z,7148.00
2018-08-07T08:47:24.941Z,7256.00
2018-08-07T08:48:24.904Z,7420.00
2018-08-07T08:49:24.806Z,7612.00
2018-08-07T08:50:24.740Z,7756.00
2018-08-07T08:51:24.678Z,7856.00
2018-08-07T08:52:24.617Z,7952.00
2018-08-07T08:53:24.554Z,8012.00
2018-08-07T08:54:24.479Z,8068.00
2018-08-07T08:55:24.416Z,8160.00
2018-08-07T08:56:24.354Z,8232.00
2018-08-07T08:57:24.292Z,8324.00
2018-08-07T08:58:24.232Z,8432.00
2018-08-07T08:59:24.154Z,8580.00
2018-08-07T09:00:24.092Z,8704.00
2018-08-07T09:01:24.029Z,8836.00
2018-08-07T09:02:23.972Z,9064.00
2018-08-07T09:03:23.905Z,9296.00
2018-08-07T09:04:23.830Z,9520.00
2018-08-07T09:05:23.767Z,9652.00
2018-08-07T09:06:23.706Z,9780.00
2018-08-07T09:07:23.643Z,9920.00
2018-08-07T09:08:23.580Z,10080.00
2018-08-07T09:09:23.518Z,10244.00
2018-08-07T09:10:23.503Z,10428.00
2018-08-07T09:11:23.422Z,10624.00
2018-08-07T09:12:23.318Z,10820.00
2018-08-07T09:13:23.255Z,11008.00
2018-08-07T09:14:23.193Z,11160.00
2018-08-07T09:15:23.130Z,11340.00
2018-08-07T09:16:23.056Z,11460.00
2018-08-07T09:17:23.006Z,11616.00
2018-08-07T09:18:22.944Z,11776.00
2018-08-07T09:19:22.920Z,11908.00
2018-08-07T09:20:22.808Z,11984.00
2018-08-07T09:21:22.747Z,12144.00
2018-08-07T09:22:22.670Z,12252.00
2018-08-07T09:23:22.606Z,12352.00
2018-08-07T09:24:22.544Z,12472.00
2018-08-07T09:25:22.535Z,12580.00
2018-08-07T09:26:22.420Z,12720.00
2018-08-07T09:27:22.356Z,12824.00
2018-08-07T09:28:22.284Z,12972.00
2018-08-07T09:29:22.231Z,13052.00
2018-08-07T09:30:22.157Z,13284.00
2018-08-07T09:31:22.095Z,13592.00
2018-08-07T09:32:22.032Z,14128.00
2018-08-07T09:33:21.970Z,14188.00
2018-08-07T09:34:21.913Z,14252.00
2018-08-07T09:35:21.833Z,7948.00
2018-08-07T09:36:21.770Z,6104.00
2018-08-07T09:37:21.709Z,6196.00
2018-08-07T09:38:21.646Z,7100.00
2018-08-07T09:39:21.586Z,7740.00
2018-08-07T09:40:21.509Z,12412.00
2018-08-07T09:41:21.446Z,10176.00
2018-08-07T09:42:21.384Z,17216.00
2018-08-07T09:43:21.324Z,19136.00
2018-08-07T09:44:21.258Z,19328.00
2018-08-07T09:45:21.196Z,18784.00
2018-08-07T09:46:21.122Z,15780.00
2018-08-07T09:47:21.059Z,11236.00
2018-08-07T09:48:20.999Z,8136.00
2018-08-07T09:49:20.933Z,8412.00
2018-08-07T09:50:20.876Z,9848.00
2018-08-07T09:51:20.797Z,8496.00
2018-08-07T09:52:20.767Z,7180.00
2018-08-07T09:53:20.672Z,6240.00
2018-08-07T09:54:20.622Z,4852.00
2018-08-07T09:55:20.536Z,4324.00
2018-08-07T09:56:20.472Z,4200.00
2018-08-07T09:57:20.409Z,4124.00
2018-08-07T09:58:20.351Z,4104.00
2018-08-07T09:59:20.275Z,4080.00
2018-08-07T10:00:20.210Z,4092.00
2018-08-07T10:01:20.149Z,4048.00
2018-08-07T10:02:20.085Z,4028.00
2018-08-07T10:03:20.011Z,4036.00
2018-08-07T10:04:19.948Z,4044.00
2018-08-07T10:05:19.950Z,4036.00
2018-08-07T10:06:19.811Z,4032.00
2018-08-07T10:07:19.758Z,4032.00
2018-08-07T10:08:19.685Z,4020.00
2018-08-07T10:09:19.623Z,4024.00
2018-08-07T10:10:19.554Z,4016.00
2018-08-07T10:11:19.474Z,4020.00
2018-08-07T10:12:19.426Z,4024.00
2018-08-07T10:13:19.351Z,4040.00
2018-08-07T10:14:19.275Z,4048.00
2018-08-07T10:15:19.228Z,4048.00
2018-08-07T10:16:19.149Z,4052.00
2018-08-07T10:17:19.075Z,4056.00
2018-08-07T10:18:19.011Z,4064.00
2018-08-07T10:19:18.936Z,4064.00
2018-08-07T10:20:18.875Z,4056.00
2018-08-07T10:21:18.824Z,4088.00
2018-08-07T10:22:18.739Z,4108.00
2018-08-07T10:23:18.715Z,4124.00
2018-08-07T10:24:18.613Z,4144.00
2018-08-07T10:25:18.549Z,4152.00
2018-08-07T10:26:18.463Z,4164.00
2018-08-07T10:27:18.401Z,4192.00
2018-08-07T10:28:18.351Z,4220.00
2018-08-07T10:29:18.262Z,4244.00
2018-08-07T10:30:18.202Z,4272.00
2018-08-07T10:31:18.127Z,4296.00
2018-08-07T10:32:18.063Z,4308.00
2018-08-07T10:33:17.989Z,4328.00
2018-08-07T10:34:17.929Z,4352.00
2018-08-07T10:35:17.855Z,4376.00
2018-08-07T10:36:17.790Z,4380.00
2018-08-07T10:37:17.726Z,4480.00
2018-08-07T10:38:17.652Z,4868.00
2018-08-07T10:39:17.591Z,4448.00
2018-08-07T10:40:17.514Z,4600.00
2018-08-07T10:41:17.581Z,5136.00
2018-08-07T10:42:17.378Z,5364.00
2018-08-07T10:43:17.424Z,9912.00
2018-08-07T10:44:17.274Z,14560.00
2018-08-07T10:45:17.177Z,14080.00
2018-08-07T10:46:17.116Z,5824.00
2018-08-07T10:47:17.039Z,5204.00
2018-08-07T10:48:16.977Z,4828.00
2018-08-07T10:49:16.906Z,4816.00
2018-08-07T10:50:16.842Z,4784.00
2018-08-07T10:51:16.779Z,4764.00
2018-08-07T10:52:16.822Z,4980.00
2018-08-07T10:53:16.640Z,8800.00
2018-08-07T10:54:16.580Z,8272.00
2018-08-07T10:55:16.510Z,17504.00
2018-08-07T10:56:16.440Z,29696.00
2018-08-07T10:57:16.366Z,28608.00
2018-08-07T10:58:16.323Z,30304.00
2018-08-07T10:59:16.229Z,35392.00
2018-08-07T11:00:16.182Z,44992.00
2018-08-07T11:01:16.104Z,57568.00
2018-08-07T11:02:16.041Z,67840.00
2018-08-07T11:03:15.966Z,74432.00
2018-08-07T11:04:15.905Z,81920.00
2018-08-07T11:05:15.841Z,93472.00
2018-08-07T11:06:15.771Z,97408.00
2018-08-07T11:07:15.705Z,93248.00
2018-08-07T11:08:15.642Z,85248.00
2018-08-07T11:09:15.581Z,78112.00
2018-08-07T11:10:15.517Z,75264.00
2018-08-07T11:11:15.444Z,74784.00
2018-08-07T11:12:15.381Z,73984.00
2018-08-07T11:13:15.317Z,74144.00
2018-08-07T11:14:15.256Z,75392.00
2018-08-07T11:15:15.193Z,76864.00
2018-08-07T11:16:15.131Z,76096.00
2018-08-07T11:17:15.068Z,77856.00
2018-08-07T11:18:15.008Z,80288.00
2018-08-07T11:19:14.944Z,82112.00
2018-08-07T11:20:14.882Z,84096.00
2018-08-07T11:21:14.818Z,87296.00
2018-08-07T11:22:14.756Z,89824.00
2018-08-07T11:23:14.694Z,92128.00
2018-08-07T11:24:14.633Z,93568.00
2018-08-07T11:25:14.568Z,93824.00
2018-08-07T11:26:14.511Z,94368.00
2018-08-07T11:27:14.457Z,97024.00
2018-08-07T11:28:14.370Z,100192.00
2018-08-07T11:29:14.332Z,103584.00
2018-08-07T11:30:14.257Z,104224.00
2018-08-07T11:31:14.211Z,111872.00
2018-08-07T11:32:14.137Z,118368.00
2018-08-07T11:33:14.069Z,124192.00
2018-08-07T11:34:14.008Z,130496.00
2018-08-07T11:35:13.947Z,133152.00
2018-08-07T11:36:13.884Z,134656.00
2018-08-07T11:37:13.820Z,140960.00
2018-08-07T11:38:13.759Z,150752.00
2018-08-07T11:39:13.709Z,154304.00
2018-08-07T11:40:13.637Z,154784.00
2018-08-07T11:41:13.587Z,155360.00
2018-08-07T11:42:13.510Z,153632.00
2018-08-07T11:43:13.446Z,150432.00
2018-08-07T11:44:13.385Z,142912.00
2018-08-07T11:45:13.321Z,136032.00
2018-08-07T11:46:13.260Z,131392.00
2018-08-07T11:47:13.209Z,128544.00
2018-08-07T11:48:13.152Z,123904.00
2018-08-07T11:49:13.073Z,121216.00
2018-08-07T11:50:13.014Z,118112.00
2018-08-07T11:51:12.961Z,116352.00
2018-08-07T11:52:12.885Z,112672.00
2018-08-07T11:53:12.822Z,111104.00
2018-08-07T11:54:12.760Z,112736.00
2018-08-07T11:55:12.699Z,111136.00
2018-08-07T11:56:12.658Z,108128.00
2018-08-07T11:57:12.586Z,108704.00
2018-08-07T11:58:12.535Z,109696.00
2018-08-07T11:59:12.461Z,112160.00
2018-08-07T12:00:12.397Z,110144.00
2018-08-07T12:01:12.337Z,106464.00
2018-08-07T12:02:12.273Z,103552.00
2018-08-07T12:03:12.211Z,100576.00
2018-08-07T12:04:12.151Z,103072.00
2018-08-07T12:05:12.090Z,101536.00
2018-08-07T12:06:12.025Z,98880.00
2018-08-07T12:07:11.962Z,98560.00
2018-08-07T12:08:11.911Z,96960.00
2018-08-07T12:09:11.848Z,94784.00
2018-08-07T12:10:11.787Z,92672.00
2018-08-07T12:11:11.724Z,89760.00
2018-08-07T12:12:11.662Z,87872.00
2018-08-07T12:13:11.599Z,85568.00
2018-08-07T12:14:11.538Z,85440.00
2018-08-07T12:15:11.487Z,83648.00
2018-08-07T12:16:11.470Z,83200.00
2018-08-07T12:17:11.349Z,81248.00
2018-08-07T12:18:11.300Z,81568.00
2018-08-07T12:19:11.237Z,81504.00